Time;durP1;ratioP1;P1;durP2;ratioP2;P2;SDS_P1;SDS_P2;PMS_P1;PMS_P2;Temp;Humidity;BMP_temperature;BMP_pressure;BME280_temperature;BME280_humidity;BME280_pressure;Samples;Min_cycle;Max_cycle;Signal;HPM_P1;HPM_P2
2023/04/25 00:00:10;;;;;;;9.10;7.27;;;8.50;99.90;;;;;;5111096;28;20181;-78
2023/04/25 00:02:36;;;;;;;8.53;7.30;;;8.50;99.90;;;;;;5112458;28;20194;-78
2023/04/25 00:05:03;;;;;;;10.03;7.33;;;8.60;99.90;;;;;;5116706;28;20190;-77
2023/04/25 00:07:28;;;;;;;9.93;7.87;;;8.50;99.90;;;;;;5132504;27;20188;-77
2023/04/25 00:09:54;;;;;;;10.70;7.47;;;8.50;99.90;;;;;;5116234;28;20185;-77
2023/04/25 00:12:21;;;;;;;9.50;7.83;;;8.40;99.90;;;;;;5116798;28;20288;-79
2023/04/25 00:14:47;;;;;;;8.80;7.57;;;8.30;99.90;;;;;;5130087;27;20192;-78
2023/04/25 00:17:12;;;;;;;9.93;8.00;;;8.40;99.90;;;;;;5116313;28;20178;-78
2023/04/25 00:19:38;;;;;;;12.57;8.80;;;8.40;99.90;;;;;;5115048;28;20172;-76
2023/04/25 00:22:05;;;;;;;11.10;8.07;;;8.40;99.90;;;;;;5116245;28;20205;-77
2023/04/25 00:24:30;;;;;;;11.23;8.63;;;8.40;99.90;;;;;;5116202;28;20185;-78
2023/04/25 00:26:56;;;;;;;11.87;8.70;;;8.30;99.90;;;;;;5116445;28;20176;-79
2023/04/25 00:29:22;;;;;;;10.70;7.73;;;8.40;99.90;;;;;;5115221;28;20185;-77
2023/04/25 00:31:47;;;;;;;11.90;8.50;;;8.40;99.90;;;;;;5115835;28;20242;-78
2023/04/25 00:34:13;;;;;;;13.07;8.50;;;8.40;99.90;;;;;;5114858;28;20175;-77
2023/04/25 00:36:38;;;;;;;13.43;8.77;;;8.40;99.90;;;;;;5114883;28;20175;-77
2023/04/25 00:39:04;;;;;;;10.57;8.20;;;8.50;99.90;;;;;;5114686;28;20174;-77
2023/04/25 00:41:30;;;;;;;12.47;8.53;;;8.40;99.90;;;;;;5114434;28;20201;-77
2023/04/25 00:43:57;;;;;;;10.63;8.20;;;8.50;99.90;;;;;;5114682;28;20169;-78
2023/04/25 00:46:23;;;;;;;9.77;8.07;;;8.50;99.90;;;;;;5115886;28;20564;-77
2023/04/25 00:48:48;;;;;;;10.50;8.33;;;8.50;99.90;;;;;;5115840;28;20174;-77
2023/04/25 00:51:18;;;;;;;10.33;7.90;;;8.50;99.90;;;;;;5114195;28;20210;-77
2023/04/25 00:53:45;;;;;;;11.13;8.90;;;8.50;99.90;;;;;;5114500;28;20254;-77
2023/04/25 00:56:10;;;;;;;10.80;8.70;;;8.40;99.90;;;;;;5114817;28;20167;-77
2023/04/25 00:58:37;;;;;;;11.57;8.20;;;8.50;99.90;;;;;;5115628;28;20254;-78
2023/04/25 01:01:02;;;;;;;11.77;8.90;;;8.40;99.90;;;;;;5114222;28;20196;-77
2023/04/25 01:03:30;;;;;;;11.50;8.00;;;8.40;99.90;;;;;;5115445;28;20178;-78
2023/04/25 01:05:56;;;;;;;9.73;7.97;;;8.50;99.90;;;;;;5114114;28;20174;-77
2023/04/25 01:08:23;;;;;;;10.33;8.10;;;8.50;99.90;;;;;;5114122;28;20176;-77
2023/04/25 01:10:49;;;;;;;10.67;8.00;;;8.60;99.90;;;;;;5114095;28;20571;-77
2023/04/25 01:13:15;;;;;;;10.50;8.20;;;8.50;99.90;;;;;;5113891;28;20198;-78
2023/04/25 01:15:40;;;;;;;12.27;8.63;;;8.40;99.90;;;;;;5114016;28;20219;-78
2023/04/25 01:18:06;;;;;;;10.57;8.30;;;8.30;99.90;;;;;;5114131;28;20170;-78
2023/04/25 01:20:33;;;;;;;12.37;9.00;;;8.30;99.90;;;;;;5113675;28;20552;-78
2023/04/25 01:23:00;;;;;;;10.17;8.40;;;8.30;99.90;;;;;;5113907;28;20174;-78
2023/04/25 01:25:26;;;;;;;10.07;8.00;;;8.30;99.90;;;;;;5113769;28;20185;-78
2023/04/25 01:27:52;;;;;;;10.73;7.97;;;8.30;99.90;;;;;;5113627;28;20265;-78
2023/04/25 01:30:18;;;;;;;10.60;7.97;;;8.30;99.90;;;;;;5113507;28;20556;-78
2023/04/25 01:32:43;;;;;;;9.90;7.90;;;8.30;99.90;;;;;;5114809;28;20201;-78
2023/04/25 01:35:11;;;;;;;9.07;7.73;;;8.30;99.90;;;;;;5113598;28;20174;-78
2023/04/25 01:37:41;;;;;;;9.63;7.60;;;8.30;99.90;;;;;;5113647;28;20212;-77
2023/04/25 01:40:08;;;;;;;10.97;7.63;;;8.30;99.90;;;;;;5113645;28;20173;-78
2023/04/25 01:42:35;;;;;;;11.37;7.73;;;8.30;99.90;;;;;;5114750;27;20249;-78
2023/04/25 01:45:02;;;;;;;9.07;7.30;;;8.30;99.90;;;;;;5113481;28;20218;-78
2023/04/25 01:47:27;;;;;;;9.60;7.50;;;8.30;99.90;;;;;;5114736;27;20186;-78
2023/04/25 01:49:53;;;;;;;9.07;6.83;;;8.20;99.90;;;;;;5113161;28;20182;-78
2023/04/25 01:52:18;;;;;;;8.80;7.70;;;8.10;99.90;;;;;;5114440;28;20214;-78
2023/04/25 01:54:44;;;;;;;8.97;7.50;;;8.00;99.90;;;;;;5113676;28;20170;-78
2023/04/25 01:57:11;;;;;;;10.33;7.60;;;8.10;99.90;;;;;;5114530;28;20254;-79
2023/04/25 01:59:37;;;;;;;9.23;7.57;;;8.10;99.90;;;;;;5113059;28;20203;-77
2023/04/25 02:02:05;;;;;;;10.10;7.57;;;8.00;99.90;;;;;;5113020;28;20216;-78
2023/04/25 02:04:31;;;;;;;9.83;7.67;;;8.10;99.90;;;;;;5114519;28;20169;-78
2023/04/25 02:06:56;;;;;;;10.50;7.77;;;8.00;99.90;;;;;;5112913;28;20195;-79
2023/04/25 02:09:22;;;;;;;10.67;8.07;;;8.00;99.90;;;;;;5113050;28;20172;-78
2023/04/25 02:11:48;;;;;;;9.87;7.37;;;7.90;99.90;;;;;;5114069;28;20239;-78
2023/04/25 02:14:13;;;;;;;10.10;7.73;;;7.90;99.90;;;;;;5114229;28;20186;-78
2023/04/25 02:16:39;;;;;;;10.37;8.00;;;7.90;99.90;;;;;;5114003;28;20183;-78
2023/04/25 02:19:05;;;;;;;12.37;8.13;;;7.90;99.90;;;;;;5113985;28;20232;-78
2023/04/25 02:21:32;;;;;;;11.03;7.90;;;7.90;99.90;;;;;;5112583;28;20209;-78
2023/04/25 02:23:57;;;;;;;11.17;8.30;;;8.00;99.90;;;;;;5112887;28;20182;-78
2023/04/25 02:26:24;;;;;;;10.47;8.30;;;8.00;99.90;;;;;;5112312;28;20173;-78
2023/04/25 02:28:50;;;;;;;9.47;7.63;;;7.90;99.90;;;;;;5113860;28;20258;-79
2023/04/25 02:31:16;;;;;;;10.87;8.13;;;8.00;99.90;;;;;;5113605;28;20189;-79
2023/04/25 02:33:41;;;;;;;9.47;7.43;;;8.00;99.90;;;;;;5112616;28;20199;-77
2023/04/25 02:36:07;;;;;;;9.30;7.47;;;8.00;99.90;;;;;;5112391;28;20583;-78
2023/04/25 02:38:33;;;;;;;10.77;7.50;;;8.00;99.90;;;;;;5113703;28;20170;-77
2023/04/25 02:40:58;;;;;;;10.90;8.43;;;8.00;99.90;;;;;;5113296;28;20328;-78
2023/04/25 02:43:24;;;;;;;11.20;8.00;;;8.00;99.90;;;;;;5113624;28;20215;-78
2023/04/25 02:45:49;;;;;;;9.87;7.80;;;8.00;99.90;;;;;;5112265;28;20202;-77
2023/04/25 02:48:15;;;;;;;11.17;8.20;;;8.00;99.90;;;;;;5113398;28;20273;-78
2023/04/25 02:50:41;;;;;;;10.57;8.37;;;8.00;99.90;;;;;;5111865;28;20558;-78
2023/04/25 02:53:06;;;;;;;10.50;8.37;;;8.00;99.90;;;;;;5112074;28;20730;-78
2023/04/25 02:55:32;;;;;;;11.60;8.10;;;8.10;99.90;;;;;;5112062;28;20633;-78
2023/04/25 02:57:57;;;;;;;10.57;7.80;;;8.10;99.90;;;;;;5112198;28;20193;-78
2023/04/25 03:00:23;;;;;;;11.07;8.40;;;8.10;99.90;;;;;;5111894;28;20177;-77
2023/04/25 03:02:48;;;;;;;10.03;8.13;;;8.10;99.90;;;;;;5111912;28;20235;-78
2023/04/25 03:05:14;;;;;;;11.93;8.37;;;8.10;99.90;;;;;;5113393;28;20225;-78
2023/04/25 03:07:40;;;;;;;11.97;8.03;;;8.10;99.90;;;;;;5112116;28;20177;-77
2023/04/25 03:10:07;;;;;;;10.27;7.67;;;8.10;99.90;;;;;;5111794;28;20176;-78
2023/04/25 03:12:32;;;;;;;11.13;7.93;;;8.10;99.90;;;;;;5111753;28;20242;-77
2023/04/25 03:14:58;;;;;;;11.67;7.97;;;8.00;99.90;;;;;;5112082;28;20173;-78
2023/04/25 03:17:23;;;;;;;9.97;7.40;;;8.00;99.90;;;;;;5112915;28;20204;-77
2023/04/25 03:19:49;;;;;;;11.57;7.60;;;8.00;99.90;;;;;;5112879;28;20212;-78
2023/04/25 03:22:15;;;;;;;9.20;7.00;;;8.00;99.90;;;;;;5111571;28;20255;-77
2023/04/25 03:24:40;;;;;;;9.30;6.80;;;7.90;99.90;;;;;;5113140;27;20184;-78
2023/04/25 03:27:06;;;;;;;8.73;6.23;;;7.80;99.90;;;;;;5112894;27;20171;-77
2023/04/25 03:29:31;;;;;;;7.73;5.60;;;7.70;38.40;;;;;;5111829;28;20239;-77
2023/04/25 03:31:57;;;;;;;7.67;5.53;;;7.70;1.00;;;;;;5111158;28;20199;-77
2023/04/25 03:34:23;;;;;;;6.73;4.67;;;7.70;1.00;;;;;;5111687;28;20172;-77
2023/04/25 03:36:49;;;;;;;6.47;3.93;;;7.60;1.00;;;;;;5112138;28;20268;-77
2023/04/25 03:39:15;;;;;;;8.00;4.27;;;7.50;1.00;;;;;;5103442;28;20263;-78
2023/04/25 03:41:41;;;;;;;9.23;4.17;;;7.50;1.00;;;;;;5112160;28;20677;-77
2023/04/25 03:44:06;;;;;;;5.83;4.03;;;7.40;99.90;;;;;;5112465;28;20175;-77
2023/04/25 03:46:32;;;;;;;7.13;3.70;;;7.20;1.00;;;;;;5112653;28;20223;-77
2023/04/25 03:48:59;;;;;;;6.33;4.00;;;7.10;99.90;;;;;;5112337;28;20235;-77
2023/04/25 03:51:25;;;;;;;6.40;3.70;;;7.10;71.10;;;;;;5112123;28;20297;-77
2023/04/25 03:53:52;;;;;;;6.10;3.73;;;7.10;99.90;;;;;;5111197;28;20202;-78
2023/04/25 03:56:17;;;;;;;4.90;3.33;;;7.00;99.90;;;;;;5111116;28;20185;-77
2023/04/25 03:58:43;;;;;;;6.97;3.53;;;7.00;1.00;;;;;;5111232;28;20171;-77
2023/04/25 04:01:09;;;;;;;6.53;3.67;;;6.90;1.00;;;;;;5112128;28;20270;-77
2023/04/25 04:03:38;;;;;;;5.27;3.73;;;6.90;1.00;;;;;;5111033;28;20185;-77
2023/04/25 04:06:05;;;;;;;5.63;3.40;;;6.80;1.00;;;;;;5112360;28;20521;-77
2023/04/25 04:08:31;;;;;;;6.03;3.40;;;6.80;1.00;;;;;;5111049;28;20177;-78
2023/04/25 04:11:00;;;;;;;6.70;3.10;;;6.80;1.00;;;;;;5110648;28;20252;-78
2023/04/25 04:13:29;;;;;;;4.87;3.20;;;6.80;1.00;;;;;;5112181;28;20691;-79
2023/04/25 04:15:55;;;;;;;5.07;3.40;;;6.70;1.00;;;;;;5110964;28;20636;-77
2023/04/25 04:18:21;;;;;;;5.47;3.07;;;6.70;99.90;;;;;;5110871;28;20295;-77
2023/04/25 04:20:47;;;;;;;7.30;3.50;;;6.70;1.00;;;;;;5112120;28;20198;-77
2023/04/25 04:23:13;;;;;;;7.63;3.13;;;6.60;1.00;;;;;;5112317;28;20179;-77
2023/04/25 04:25:39;;;;;;;5.70;3.20;;;6.60;99.90;;;;;;5112134;28;20171;-77
2023/04/25 04:28:05;;;;;;;5.33;3.10;;;6.50;1.00;;;;;;5112283;28;20173;-78
2023/04/25 04:30:32;;;;;;;6.83;3.47;;;6.50;1.00;;;;;;5112312;28;20177;-77
2023/04/25 04:32:57;;;;;;;6.40;3.10;;;6.40;1.00;;;;;;5110672;28;20707;-78
2023/04/25 04:35:24;;;;;;;6.40;3.43;;;6.40;99.90;;;;;;5111029;28;20174;-77
2023/04/25 04:37:50;;;;;;;8.07;3.57;;;6.40;41.40;;;;;;5112317;28;20228;-77
2023/04/25 04:40:17;;;;;;;7.43;4.20;;;6.40;99.90;;;;;;5110581;28;20175;-77
2023/04/25 04:42:45;;;;;;;5.90;3.80;;;6.40;1.00;;;;;;5111978;28;20210;-78
2023/04/25 04:45:12;;;;;;;5.47;3.40;;;6.40;99.90;;;;;;5112066;28;20187;-77
2023/04/25 04:47:39;;;;;;;5.80;3.37;;;6.50;1.00;;;;;;5110589;28;20179;-77
2023/04/25 04:50:09;;;;;;;4.73;3.27;;;6.40;1.00;;;;;;5113086;28;20175;-77
2023/04/25 04:52:38;;;;;;;6.57;3.63;;;6.20;1.00;;;;;;5144973;22;20263;-81
2023/04/25 04:55:05;;;;;;;7.97;3.30;;;6.30;1.00;;;;;;5079743;28;20183;-81
2023/04/25 04:57:32;;;;;;;6.40;3.53;;;6.30;2.20;;;;;;5080375;28;20172;-81
2023/04/25 04:59:58;;;;;;;8.73;3.87;;;6.40;1.00;;;;;;5082125;28;20187;-82
2023/04/25 05:02:24;;;;;;;7.70;3.83;;;6.40;1.00;;;;;;5080625;28;20229;-81
2023/04/25 05:04:51;;;;;;;6.73;4.00;;;6.40;99.90;;;;;;5079176;28;20175;-81
2023/04/25 05:07:17;;;;;;;6.80;4.00;;;6.30;18.80;;;;;;5079763;28;20173;-81
2023/04/25 05:09:42;;;;;;;6.40;4.20;;;6.20;1.00;;;;;;5082016;28;20181;-80
2023/04/25 05:12:08;;;;;;;7.30;3.80;;;6.20;1.00;;;;;;5081547;28;20195;-82
2023/04/25 05:14:34;;;;;;;6.47;3.90;;;6.30;1.00;;;;;;5082321;28;20260;-80
2023/04/25 05:17:00;;;;;;;7.37;3.67;;;6.30;99.90;;;;;;5081797;28;20647;-80
2023/04/25 05:19:26;;;;;;;6.97;3.67;;;6.30;99.90;;;;;;5087723;28;20183;-80
2023/04/25 05:21:52;;;;;;;6.13;4.00;;;6.30;99.90;;;;;;5090433;28;20193;-81
2023/04/25 05:24:17;;;;;;;7.60;3.93;;;6.30;99.90;;;;;;5096527;28;20174;-80
2023/04/25 05:26:43;;;;;;;7.57;4.37;;;6.40;99.90;;;;;;5096778;28;20180;-83
2023/04/25 05:29:08;;;;;;;8.67;3.73;;;6.40;99.90;;;;;;5094985;28;20170;-82
2023/04/25 05:31:35;;;;;;;6.37;3.93;;;6.40;1.00;;;;;;5097339;28;20212;-80
2023/04/25 05:34:01;;;;;;;6.37;3.80;;;6.40;99.90;;;;;;5095988;28;20258;-81
2023/04/25 05:36:27;;;;;;;6.77;3.57;;;6.40;99.90;;;;;;5096170;28;20169;-79
2023/04/25 05:38:52;;;;;;;6.20;3.93;;;6.50;99.90;;;;;;5100230;28;20649;-79
2023/04/25 05:41:18;;;;;;;7.27;4.00;;;6.70;1.00;;;;;;5097974;28;20217;-81
2023/04/25 05:43:46;;;;;;;7.47;4.40;;;6.50;1.00;;;;;;5096890;28;20182;-81
2023/04/25 05:46:12;;;;;;;5.83;3.73;;;6.40;99.90;;;;;;5097577;28;20561;-82
2023/04/25 05:48:38;;;;;;;5.80;4.30;;;6.60;99.90;;;;;;5095972;28;20700;-83
2023/04/25 05:51:04;;;;;;;7.33;3.70;;;6.60;99.90;;;;;;5094156;28;20186;-82
2023/04/25 05:53:30;;;;;;;6.57;3.93;;;6.60;1.00;;;;;;5095721;28;20202;-82
2023/04/25 05:55:55;;;;;;;6.77;4.00;;;6.60;1.00;;;;;;5094500;28;20554;-85
2023/04/25 05:58:21;;;;;;;8.80;4.70;;;6.60;1.00;;;;;;5093659;28;20213;-85
2023/04/25 06:00:47;;;;;;;6.60;4.30;;;6.70;50.00;;;;;;5092798;28;20180;-80
2023/04/25 06:03:14;;;;;;;6.50;4.47;;;6.60;99.90;;;;;;5095305;28;20279;-84
2023/04/25 06:05:42;;;;;;;6.17;4.40;;;6.70;1.00;;;;;;5094151;28;20308;-83
2023/04/25 06:08:08;;;;;;;7.97;4.30;;;6.80;1.00;;;;;;5095305;28;20178;-82
2023/04/25 06:10:33;;;;;;;5.13;3.47;;;6.80;99.90;;;;;;5094533;28;20202;-82
2023/04/25 06:12:59;;;;;;;8.30;4.43;;;6.90;1.00;;;;;;5093984;28;20201;-81
2023/04/25 06:15:24;;;;;;;7.63;4.60;;;6.80;99.90;;;;;;5094735;28;20188;-83
2023/04/25 06:17:50;;;;;;;5.67;3.90;;;6.70;1.00;;;;;;5095372;28;20168;-81
2023/04/25 06:20:16;;;;;;;7.57;4.37;;;6.70;1.00;;;;;;5094996;28;20692;-81
2023/04/25 06:22:41;;;;;;;8.10;4.20;;;6.70;99.90;;;;;;5093947;28;20201;-82
2023/04/25 06:25:07;;;;;;;8.47;4.40;;;6.60;99.90;;;;;;5096826;28;20170;-81
2023/04/25 06:27:33;;;;;;;8.13;4.20;;;6.70;1.00;;;;;;5095133;28;20186;-83
2023/04/25 06:29:59;;;;;;;9.83;4.80;;;6.60;1.00;;;;;;5094509;28;20258;-81
2023/04/25 06:32:27;;;;;;;6.77;4.00;;;6.70;24.70;;;;;;5095793;28;20658;-82
2023/04/25 06:34:53;;;;;;;6.60;4.10;;;6.70;1.00;;;;;;5097904;28;20167;-81
2023/04/25 06:37:18;;;;;;;9.80;5.13;;;6.80;1.00;;;;;;5094957;28;20175;-81
2023/04/25 06:39:44;;;;;;;10.97;5.63;;;6.80;99.90;;;;;;5096007;28;20197;-82
2023/04/25 06:42:09;;;;;;;9.33;5.07;;;6.80;99.90;;;;;;5094803;28;20221;-80
2023/04/25 06:44:35;;;;;;;7.23;3.83;;;6.90;99.90;;;;;;5095438;28;20215;-81
2023/04/25 06:47:01;;;;;;;7.03;4.67;;;6.90;1.00;;;;;;5096665;28;20215;-80
2023/04/25 06:49:26;;;;;;;6.67;4.17;;;6.80;99.90;;;;;;5095860;28;20178;-80
2023/04/25 06:51:52;;;;;;;8.00;4.43;;;6.80;99.90;;;;;;5094784;28;20241;-81
2023/04/25 06:54:17;;;;;;;7.60;4.13;;;6.80;1.00;;;;;;5097394;28;20207;-80
2023/04/25 06:56:43;;;;;;;8.43;4.87;;;6.90;1.00;;;;;;5066514;28;20202;-79
2023/04/25 06:59:09;;;;;;;7.67;4.40;;;6.90;1.00;;;;;;5054197;28;20181;-81
2023/04/25 07:01:35;;;;;;;6.87;4.37;;;6.80;1.00;;;;;;5055953;28;20187;-81
2023/04/25 07:04:01;;;;;;;5.93;4.67;;;6.90;99.90;;;;;;5056606;28;20188;-81
2023/04/25 07:06:27;;;;;;;7.97;4.40;;;7.00;1.00;;;;;;5055900;28;20180;-80
2023/04/25 07:08:53;;;;;;;6.43;4.20;;;7.10;1.00;;;;;;5057009;28;20177;-81
2023/04/25 07:11:19;;;;;;;7.20;4.50;;;7.20;1.00;;;;;;5055532;28;20219;-82
2023/04/25 07:13:44;;;;;;;5.97;4.30;;;7.20;99.90;;;;;;5054351;28;20840;-80
2023/04/25 07:16:10;;;;;;;5.70;4.23;;;7.20;1.00;;;;;;5055623;28;20173;-80
2023/04/25 07:18:35;;;;;;;8.67;4.07;;;7.20;1.00;;;;;;5055889;28;20191;-80
2023/04/25 07:21:01;;;;;;;5.83;4.23;;;7.20;24.10;;;;;;5057128;28;20181;-80
2023/04/25 07:23:26;;;;;;;6.77;4.57;;;7.20;99.90;;;;;;5057526;28;20194;-80
2023/04/25 07:25:52;;;;;;;7.90;4.40;;;7.30;1.00;;;;;;5055931;28;20328;-80
2023/04/25 07:28:17;;;;;;;7.57;4.33;;;7.30;99.90;;;;;;5056156;28;20182;-81
2023/04/25 07:30:43;;;;;;;7.07;4.30;;;7.40;99.90;;;;;;5057212;28;20188;-81
2023/04/25 07:33:09;;;;;;;6.77;3.90;;;7.50;1.00;;;;;;5055501;28;20208;-81
2023/04/25 07:35:35;;;;;;;4.90;3.90;;;7.50;1.00;;;;;;5055234;28;20601;-80
2023/04/25 07:38:02;;;;;;;7.20;3.80;;;7.60;41.90;;;;;;5056205;28;20204;-81
2023/04/25 07:40:28;;;;;;;6.43;3.93;;;7.70;99.90;;;;;;5055535;28;20177;-81
2023/04/25 07:42:53;;;;;;;6.63;3.80;;;7.60;99.90;;;;;;5054790;28;20196;-80
2023/04/25 07:45:19;;;;;;;7.03;3.83;;;7.60;1.00;;;;;;5056787;28;20177;-80
2023/04/25 07:47:45;;;;;;;4.93;3.50;;;7.60;1.00;;;;;;5055065;28;20170;-81
2023/04/25 07:50:10;;;;;;;5.97;3.47;;;7.60;1.00;;;;;;5055649;28;20185;-81
2023/04/25 07:52:36;;;;;;;5.53;3.77;;;7.70;1.00;;;;;;5057073;28;20209;-80
2023/04/25 07:55:02;;;;;;;4.77;2.90;;;7.60;1.00;;;;;;5055624;28;20592;-81
2023/04/25 07:57:27;;;;;;;5.73;2.90;;;7.60;1.00;;;;;;5058004;28;20174;-81
2023/04/25 07:59:53;;;;;;;3.50;2.70;;;7.70;1.00;;;;;;5056841;28;20170;-82
2023/04/25 08:02:18;;;;;;;3.73;2.53;;;7.70;20.80;;;;;;5056480;28;20192;-81
2023/04/25 08:04:44;;;;;;;3.60;2.47;;;7.60;99.90;;;;;;5057511;28;20181;-80
2023/04/25 08:07:10;;;;;;;3.50;2.20;;;7.70;99.90;;;;;;5057669;28;20175;-80
2023/04/25 08:09:36;;;;;;;3.73;2.60;;;7.70;47.70;;;;;;5057201;28;20179;-78
2023/04/25 08:12:02;;;;;;;4.27;2.70;;;7.70;99.90;;;;;;5056015;28;20185;-80
2023/04/25 08:14:31;;;;;;;2.90;2.43;;;7.70;1.00;;;;;;5056763;28;20181;-81
2023/04/25 08:16:56;;;;;;;2.77;1.80;;;7.70;9.30;;;;;;5056491;28;20177;-80
2023/04/25 08:19:22;;;;;;;4.07;2.10;;;7.80;70.30;;;;;;5054648;28;20176;-80
2023/04/25 08:21:47;;;;;;;2.97;2.00;;;7.90;1.00;;;;;;5053582;28;20235;-80
2023/04/25 08:24:13;;;;;;;3.80;1.93;;;8.00;1.00;;;;;;5056503;28;20197;-80
2023/04/25 08:26:39;;;;;;;2.93;2.00;;;8.10;71.50;;;;;;5059563;28;20200;-80
2023/04/25 08:29:05;;;;;;;2.70;2.20;;;8.30;1.00;;;;;;5057774;28;20180;-80
2023/04/25 08:31:31;;;;;;;2.60;2.20;;;8.40;34.90;;;;;;5057947;28;20201;-80
2023/04/25 08:33:56;;;;;;;2.27;1.97;;;8.60;99.90;;;;;;5057919;28;20583;-82
2023/04/25 08:36:22;;;;;;;3.77;1.90;;;8.60;99.90;;;;;;5059809;28;20166;-80
2023/04/25 08:38:48;;;;;;;2.73;1.87;;;8.60;99.90;;;;;;5057800;28;20174;-80
2023/04/25 08:41:15;;;;;;;3.30;2.00;;;8.60;1.00;;;;;;5058876;28;20191;-80
2023/04/25 08:43:43;;;;;;;3.37;2.30;;;8.60;99.90;;;;;;5059344;28;20178;-80
2023/04/25 08:46:11;;;;;;;3.67;2.10;;;8.60;4.50;;;;;;5058671;28;20246;-81
2023/04/25 08:48:36;;;;;;;2.97;2.20;;;8.70;99.90;;;;;;5058993;28;20174;-82
2023/04/25 08:51:05;;;;;;;3.50;2.10;;;8.80;99.90;;;;;;5057066;28;20178;-80
2023/04/25 08:53:32;;;;;;;3.50;2.23;;;8.80;1.00;;;;;;5057316;28;20198;-80
2023/04/25 08:56:01;;;;;;;3.90;2.13;;;8.60;1.00;;;;;;5058271;28;20181;-80
2023/04/25 08:58:28;;;;;;;3.30;2.40;;;8.50;99.90;;;;;;5059347;28;20185;-80
2023/04/25 09:00:54;;;;;;;3.63;2.27;;;8.40;13.90;;;;;;5057273;28;20170;-80
2023/04/25 09:03:19;;;;;;;2.57;1.90;;;8.20;1.00;;;;;;5058637;28;20180;-82
2023/04/25 09:05:45;;;;;;;2.40;1.73;;;8.10;3.00;;;;;;5057467;28;20231;-80
2023/04/25 09:08:11;;;;;;;1.60;1.50;;;8.20;1.00;;;;;;5058430;28;20193;-80
2023/04/25 09:10:37;;;;;;;1.60;1.33;;;8.40;29.60;;;;;;5057121;28;20204;-81
2023/04/25 09:13:08;;;;;;;3.17;1.80;;;8.50;1.00;;;;;;5056803;28;20206;-80
2023/04/25 09:15:48;;;;;;;3.83;1.67;;;8.40;1.00;;;;;;5057334;28;20169;-81
2023/04/25 09:18:29;;;;;;;4.23;2.13;;;8.40;99.90;;;;;;5067061;28;20322;-82
2023/04/25 09:21:11;;;;;;;2.67;1.60;;;8.40;1.00;;;;;;5085304;28;20264;-82
2023/04/25 09:23:55;;;;;;;3.83;1.70;;;8.50;1.00;;;;;;5085374;28;20256;-81
2023/04/25 09:26:21;;;;;;;3.33;2.00;;;8.40;1.00;;;;;;5094023;28;20178;-81
2023/04/25 09:28:49;;;;;;;2.90;1.93;;;8.30;1.00;;;;;;5097222;28;20553;-81
2023/04/25 09:31:24;;;;;;;2.13;1.80;;;8.30;9.40;;;;;;5095498;28;20197;-80
2023/04/25 09:33:49;;;;;;;4.53;2.10;;;8.30;99.90;;;;;;5079799;28;20212;-80
2023/04/25 09:36:15;;;;;;;2.93;2.20;;;8.30;1.00;;;;;;5081670;28;20173;-82
2023/04/25 09:38:45;;;;;;;3.77;2.33;;;8.30;1.00;;;;;;5088366;28;20192;-82
2023/04/25 09:41:11;;;;;;;4.53;2.00;;;8.30;1.00;;;;;;5091204;28;20237;-81
2023/04/25 09:43:37;;;;;;;3.20;2.00;;;8.30;1.00;;;;;;5099073;28;20177;-80
2023/04/25 09:46:11;;;;;;;3.60;2.20;;;8.40;1.00;;;;;;5098899;28;20227;-81
2023/04/25 09:48:37;;;;;;;2.20;1.70;;;8.60;99.90;;;;;;5098662;28;20652;-83
2023/04/25 09:51:13;;;;;;;4.00;2.13;;;8.80;1.00;;;;;;5087774;28;20279;-81
2023/04/25 09:53:44;;;;;;;3.57;1.90;;;9.30;1.00;;;;;;5081038;28;20216;-83
2023/04/25 09:56:11;;;;;;;2.93;1.90;;;9.60;1.00;;;;;;5095794;28;20172;-83
2023/04/25 09:58:38;;;;;;;2.23;1.77;;;9.90;1.00;;;;;;5097948;28;20178;-82
2023/04/25 10:01:09;;;;;;;3.03;1.73;;;10.10;99.90;;;;;;5097672;28;20179;-80
2023/04/25 10:03:39;;;;;;;3.33;1.87;;;10.00;99.90;;;;;;5101386;28;20163;-79
2023/04/25 10:06:08;;;;;;;2.83;1.70;;;10.00;1.00;;;;;;5097195;28;20607;-83
2023/04/25 10:08:38;;;;;;;2.43;1.80;;;10.00;1.00;;;;;;5096178;28;20727;-85
2023/04/25 10:11:05;;;;;;;3.23;2.07;;;9.80;99.90;;;;;;5094947;28;20181;-82
2023/04/25 10:13:32;;;;;;;2.77;1.93;;;9.60;1.00;;;;;;5096047;28;20210;-81
2023/04/25 10:15:59;;;;;;;3.33;1.80;;;9.60;99.90;;;;;;5096978;28;20178;-81
2023/04/25 10:18:27;;;;;;;3.00;1.90;;;9.60;99.90;;;;;;5093849;28;20179;-82
2023/04/25 10:20:59;;;;;;;6.03;1.93;;;9.50;99.90;;;;;;5085092;28;20218;-84
2023/04/25 10:23:25;;;;;;;3.73;2.20;;;9.50;99.90;;;;;;5076962;28;20176;-84
2023/04/25 10:25:51;;;;;;;2.33;1.90;;;9.40;99.90;;;;;;5077917;28;20229;-81
2023/04/25 10:28:18;;;;;;;2.30;1.80;;;9.40;99.90;;;;;;5076144;28;20182;-83
2023/04/25 10:31:02;;;;;;;2.23;1.73;;;9.40;41.00;;;;;;5078218;28;20179;-82
2023/04/25 10:33:38;;;;;;;2.90;1.90;;;9.40;1.00;;;;;;5076267;28;20234;-81
2023/04/25 10:36:14;;;;;;;3.60;1.90;;;9.30;99.90;;;;;;5078191;28;20198;-82
2023/04/25 10:38:42;;;;;;;2.83;1.90;;;9.30;99.90;;;;;;5077026;28;20174;-81
2023/04/25 10:41:09;;;;;;;5.20;2.10;;;9.30;95.10;;;;;;5078950;28;20202;-84
2023/04/25 10:43:39;;;;;;;3.47;2.30;;;9.20;99.90;;;;;;5077319;28;20170;-81
2023/04/25 10:46:27;;;;;;;3.30;2.33;;;9.10;99.90;;;;;;5078773;28;20172;-80
2023/04/25 10:48:53;;;;;;;3.53;2.03;;;9.00;80.40;;;;;;5077227;28;20170;-81
2023/04/25 10:51:26;;;;;;;3.63;2.00;;;8.80;99.90;;;;;;5078887;28;20205;-82
2023/04/25 10:53:55;;;;;;;3.60;1.90;;;8.80;99.90;;;;;;5072067;28;20256;-82
2023/04/25 10:56:23;;;;;;;3.87;2.30;;;8.70;99.90;;;;;;5080481;28;20170;-82
2023/04/25 10:58:49;;;;;;;3.97;2.20;;;8.70;99.90;;;;;;5079490;28;20174;-81
2023/04/25 11:01:24;;;;;;;4.00;2.57;;;8.50;99.90;;;;;;5077722;28;20208;-81
2023/04/25 11:03:57;;;;;;;5.33;2.40;;;8.50;1.00;;;;;;5078690;28;20238;-81
2023/04/25 11:06:29;;;;;;;4.63;2.27;;;8.50;1.00;;;;;;5079114;28;20201;-81
2023/04/25 11:08:55;;;;;;;4.03;2.30;;;8.50;1.00;;;;;;5079598;28;20197;-81
2023/04/25 11:11:20;;;;;;;5.30;2.70;;;8.40;99.90;;;;;;5079859;28;20238;-82
2023/04/25 11:13:50;;;;;;;5.97;2.57;;;8.40;99.90;;;;;;5082766;28;20193;-81
2023/04/25 11:16:16;;;;;;;4.90;2.27;;;8.30;1.00;;;;;;5075127;28;20173;-81
2023/04/25 11:18:43;;;;;;;5.23;2.53;;;8.30;1.00;;;;;;5073943;28;20173;-81
2023/04/25 11:21:09;;;;;;;7.00;2.50;;;8.30;1.00;;;;;;5075483;28;20187;-81
2023/04/25 11:23:36;;;;;;;4.97;2.70;;;8.50;1.00;;;;;;5075901;28;20435;-82
2023/04/25 11:26:02;;;;;;;3.53;2.27;;;8.50;1.00;;;;;;5074328;28;20173;-82
2023/04/25 11:28:28;;;;;;;5.70;2.87;;;8.50;1.00;;;;;;5075677;28;20174;-81
2023/04/25 11:30:54;;;;;;;7.70;3.30;;;8.60;1.00;;;;;;5074187;28;20182;-82
2023/04/25 11:33:24;;;;;;;7.23;2.57;;;8.70;1.00;;;;;;5073347;28;20201;-81
2023/04/25 11:35:52;;;;;;;5.50;2.43;;;8.80;1.00;;;;;;5075825;28;20166;-79
2023/04/25 11:38:18;;;;;;;6.53;2.50;;;8.90;99.90;;;;;;5077258;28;20171;-79
2023/04/25 11:40:43;;;;;;;6.47;2.50;;;8.90;99.90;;;;;;5076431;28;20179;-79
2023/04/25 11:43:09;;;;;;;3.63;2.47;;;9.10;99.90;;;;;;5074913;28;20228;-78
2023/04/25 11:45:36;;;;;;;5.57;2.50;;;9.20;1.00;;;;;;5077576;28;20171;-79
2023/04/25 11:48:03;;;;;;;3.43;2.30;;;9.40;1.00;;;;;;5076538;28;20184;-79
2023/04/25 11:50:29;;;;;;;5.30;2.40;;;9.50;1.00;;;;;;5077804;28;20235;-79
2023/04/25 11:52:56;;;;;;;6.13;2.33;;;9.50;1.00;;;;;;5076110;28;20236;-79
2023/04/25 11:55:22;;;;;;;7.17;2.80;;;9.40;99.90;;;;;;5074839;28;20197;-79
2023/04/25 11:57:52;;;;;;;4.73;2.33;;;9.30;1.00;;;;;;5058136;28;20176;-79
2023/04/25 12:00:20;;;;;;;5.30;2.23;;;9.30;1.00;;;;;;5054340;28;20176;-79
2023/04/25 12:02:50;;;;;;;4.77;2.43;;;9.10;99.90;;;;;;5067824;28;20207;-79
2023/04/25 12:05:16;;;;;;;7.27;2.80;;;8.90;99.90;;;;;;5089095;28;20186;-79
2023/04/25 12:07:42;;;;;;;6.77;2.33;;;8.80;1.00;;;;;;5074906;28;20175;-79
2023/04/25 12:10:13;;;;;;;5.17;2.23;;;8.80;99.90;;;;;;5075815;28;20179;-79
2023/04/25 12:12:42;;;;;;;3.73;2.00;;;8.90;1.00;;;;;;5075493;28;20196;-78
2023/04/25 12:15:11;;;;;;;4.73;2.23;;;9.10;99.90;;;;;;5074504;28;20170;-78
2023/04/25 12:17:38;;;;;;;6.60;2.40;;;9.30;99.90;;;;;;5075589;28;20206;-79
2023/04/25 12:20:15;;;;;;;2.80;2.17;;;9.50;99.90;;;;;;5075551;28;20171;-80
2023/04/25 12:22:46;;;;;;;6.63;2.47;;;9.70;16.20;;;;;;5074353;28;20192;-79
2023/04/25 12:25:13;;;;;;;3.50;2.00;;;9.80;30.80;;;;;;5075104;28;20723;-79
2023/04/25 12:27:43;;;;;;;2.93;1.90;;;10.00;1.00;;;;;;5074003;28;20173;-78
2023/04/25 12:30:10;;;;;;;3.63;2.07;;;9.90;1.00;;;;;;5073687;28;20541;-78
2023/04/25 12:32:37;;;;;;;3.80;2.00;;;10.10;1.00;;;;;;5072232;28;20212;-81
2023/04/25 12:35:03;;;;;;;4.17;2.00;;;10.70;1.00;;;;;;5074421;28;20223;-79
2023/04/25 12:37:29;;;;;;;2.60;2.10;;;11.50;1.00;;;;;;5075394;28;20184;-79
2023/04/25 12:39:55;;;;;;;7.53;2.13;;;12.20;99.90;;;;;;5074183;28;20165;-78
2023/04/25 12:42:20;;;;;;;4.63;2.10;;;12.10;99.90;;;;;;5073530;28;20189;-79
2023/04/25 12:44:46;;;;;;;3.73;2.30;;;11.80;99.90;;;;;;5074445;28;20230;-79
2023/04/25 12:47:12;;;;;;;4.20;2.00;;;11.40;99.90;;;;;;5073888;28;20169;-79
2023/04/25 12:49:37;;;;;;;4.20;1.80;;;10.90;99.90;;;;;;5073985;28;20181;-78
2023/04/25 12:52:03;;;;;;;3.90;1.80;;;10.60;99.90;;;;;;5074236;28;20212;-79
2023/04/25 12:54:28;;;;;;;5.77;1.93;;;10.30;99.90;;;;;;5074546;28;20201;-80